createdAt,value
2023-02-07T00:00:17.463Z,-9.99
2023-02-07T00:02:46.434Z,-10.00
2023-02-07T00:05:13.677Z,-10.01
2023-02-07T00:07:40.554Z,-10.02
2023-02-07T00:10:08.474Z,-10.04
2023-02-07T00:12:35.684Z,-10.08
2023-02-07T00:15:02.393Z,-10.11
2023-02-07T00:17:29.568Z,-10.12
2023-02-07T00:19:57.030Z,-10.12
2023-02-07T00:22:23.889Z,-10.10
2023-02-07T00:24:50.700Z,-10.10
2023-02-07T00:27:17.875Z,-10.18
2023-02-07T00:29:45.325Z,-10.22
2023-02-07T00:32:12.977Z,-10.24
2023-02-07T00:34:40.010Z,-10.24
2023-02-07T00:37:06.928Z,-10.27
2023-02-07T00:39:33.821Z,-10.30
2023-02-07T00:42:00.598Z,-10.29
2023-02-07T00:44:27.387Z,-10.30
2023-02-07T00:46:54.318Z,-10.31
2023-02-07T00:49:22.131Z,-10.34
2023-02-07T00:51:48.858Z,-10.37
2023-02-07T00:54:15.689Z,-10.39
2023-02-07T00:56:43.776Z,-10.44
2023-02-07T00:59:10.531Z,-10.52
2023-02-07T01:01:37.489Z,-10.58
2023-02-07T01:04:04.440Z,-10.61
2023-02-07T01:06:33.910Z,-10.64
2023-02-07T01:09:02.491Z,-10.70
2023-02-07T01:11:30.383Z,-10.74
2023-02-07T01:13:59.955Z,-10.77
2023-02-07T01:16:30.809Z,-10.78
2023-02-07T01:19:02.227Z,-10.81
2023-02-07T01:21:29.280Z,-10.86
2023-02-07T01:23:56.941Z,-10.89
2023-02-07T01:26:25.568Z,-10.88
2023-02-07T01:28:55.084Z,-10.88
2023-02-07T01:31:23.209Z,-10.87
2023-02-07T01:33:55.532Z,-10.88
2023-02-07T01:36:22.603Z,-10.89
2023-02-07T01:38:52.446Z,-10.86
2023-02-07T01:41:20.602Z,-10.81
2023-02-07T01:44:03.092Z,-10.80
2023-02-07T01:46:32.211Z,-10.82
2023-02-07T01:49:04.878Z,-10.86
2023-02-07T01:51:32.848Z,-10.89
2023-02-07T01:54:03.392Z,-10.90
2023-02-07T01:56:32.416Z,-10.91
2023-02-07T01:59:04.460Z,-10.95
2023-02-07T02:01:31.681Z,-11.00
2023-02-07T02:03:58.692Z,-11.02
2023-02-07T02:06:30.419Z,-11.05
2023-02-07T02:09:01.355Z,-11.06
2023-02-07T02:11:49.471Z,-11.07
2023-02-07T02:14:26.922Z,-11.09
2023-02-07T02:17:22.283Z,-11.13
2023-02-07T02:19:50.100Z,-11.18
2023-02-07T02:22:25.464Z,-11.23
2023-02-07T02:24:59.200Z,-11.27
2023-02-07T02:27:34.407Z,-11.29
2023-02-07T02:30:29.904Z,-11.30
2023-02-07T02:33:09.212Z,-11.31
2023-02-07T02:35:42.716Z,-11.31
2023-02-07T02:38:24.005Z,-11.29
2023-02-07T02:41:02.015Z,-11.29
2023-02-07T02:43:54.037Z,-11.31
2023-02-07T02:46:25.161Z,-11.32
2023-02-07T02:48:53.878Z,-11.28
2023-02-07T02:51:21.288Z,-11.27
2023-02-07T02:53:52.867Z,-11.26
2023-02-07T02:56:39.488Z,-11.26
2023-02-07T02:59:26.489Z,-11.25
2023-02-07T03:02:02.736Z,-11.23
2023-02-07T03:05:00.484Z,-11.20
2023-02-07T03:07:46.294Z,-11.17
2023-02-07T03:10:24.271Z,-11.17
2023-02-07T03:13:01.870Z,-11.21
2023-02-07T03:15:35.025Z,-11.24
2023-02-07T03:18:14.343Z,-11.28
2023-02-07T03:20:47.012Z,-11.31
2023-02-07T03:23:16.549Z,-11.37
2023-02-07T03:25:45.756Z,-11.43
2023-02-07T03:28:16.693Z,-11.46
2023-02-07T03:30:49.064Z,-11.47
2023-02-07T03:33:17.978Z,-11.48
2023-02-07T03:36:09.772Z,-11.52
2023-02-07T03:38:37.802Z,-11.54
2023-02-07T03:41:15.688Z,-11.51
2023-02-07T03:43:44.230Z,-11.47
2023-02-07T03:46:11.738Z,-11.49
2023-02-07T03:48:38.550Z,-11.50
2023-02-07T03:51:05.478Z,-11.47
2023-02-07T03:53:32.184Z,-11.43
2023-02-07T03:55:58.966Z,-11.42
2023-02-07T03:58:25.880Z,-11.42
2023-02-07T04:00:52.736Z,-11.44
2023-02-07T04:03:19.582Z,-11.46
2023-02-07T04:05:46.569Z,-11.47
2023-02-07T04:08:13.383Z,-11.45
2023-02-07T04:10:40.195Z,-11.44
2023-02-07T04:13:06.989Z,-11.43
2023-02-07T04:15:33.833Z,-11.42
2023-02-07T04:18:00.758Z,-11.40
2023-02-07T04:20:27.637Z,-11.40
2023-02-07T04:22:54.402Z,-11.41
2023-02-07T04:25:21.359Z,-11.43
2023-02-07T04:27:51.013Z,-11.47
2023-02-07T04:30:17.888Z,-11.49
2023-02-07T04:32:44.693Z,-11.48
2023-02-07T04:35:11.440Z,-11.48
2023-02-07T04:37:38.227Z,-11.50
2023-02-07T04:40:05.324Z,-11.51
2023-02-07T04:42:32.180Z,-11.56
2023-02-07T04:44:58.919Z,-11.63
2023-02-07T04:47:25.702Z,-11.70
2023-02-07T04:49:52.503Z,-11.87
2023-02-07T04:52:19.241Z,-12.17
2023-02-07T04:54:46.260Z,-12.23
2023-02-07T04:57:12.991Z,-12.22
2023-02-07T04:59:39.723Z,-12.25
2023-02-07T05:02:06.626Z,-12.28
2023-02-07T05:04:33.444Z,-12.37
2023-02-07T05:07:00.233Z,-12.44
2023-02-07T05:09:27.231Z,-12.43
2023-02-07T05:11:54.014Z,-12.38
2023-02-07T05:14:20.778Z,-12.33
2023-02-07T05:16:47.622Z,-12.24
2023-02-07T05:19:14.420Z,-12.17
2023-02-07T05:21:41.170Z,-12.10
2023-02-07T05:24:08.277Z,-11.99
2023-02-07T05:26:35.044Z,-11.85
2023-02-07T05:29:01.807Z,-11.72
2023-02-07T05:31:44.164Z,-11.62
2023-02-07T05:34:11.089Z,-11.54
2023-02-07T05:36:37.836Z,-11.42
2023-02-07T05:39:04.722Z,-11.37
2023-02-07T05:41:31.557Z,-11.32
2023-02-07T05:43:58.268Z,-11.24
2023-02-07T05:46:25.094Z,-11.13
2023-02-07T05:48:51.917Z,-11.02
2023-02-07T05:51:19.004Z,-10.91
2023-02-07T05:53:45.815Z,-10.82
2023-02-07T05:56:12.583Z,-10.74
2023-02-07T05:58:39.327Z,-10.65
2023-02-07T06:01:06.140Z,-10.59
2023-02-07T06:03:32.939Z,-10.51
2023-02-07T06:05:59.659Z,-10.44
2023-02-07T06:08:26.444Z,-10.33
2023-02-07T06:10:53.156Z,-10.19
2023-02-07T06:13:19.964Z,-10.06
2023-02-07T06:15:47.768Z,-9.91
2023-02-07T06:18:14.836Z,-9.76
2023-02-07T06:20:41.538Z,-9.65
2023-02-07T06:23:08.332Z,-9.55
2023-02-07T06:25:35.016Z,-9.51
2023-02-07T06:28:01.809Z,-9.39
2023-02-07T06:30:28.710Z,-9.30
2023-02-07T06:32:55.423Z,-9.18
2023-02-07T06:35:22.132Z,-9.19
2023-02-07T06:37:48.946Z,-9.24
2023-02-07T06:40:16.089Z,-9.37
2023-02-07T06:42:44.467Z,-9.47
2023-02-07T06:45:11.269Z,-9.46
2023-02-07T06:47:37.978Z,-9.46
2023-02-07T06:50:05.214Z,-9.42
2023-02-07T06:52:32.047Z,-9.45
2023-02-07T06:54:58.736Z,-9.34
2023-02-07T06:57:25.489Z,-9.23
2023-02-07T06:59:52.295Z,-9.09
2023-02-07T07:02:19.184Z,-8.98
2023-02-07T07:04:46.076Z,-8.96
2023-02-07T07:07:12.949Z,-8.95
2023-02-07T07:09:39.794Z,-8.88
2023-02-07T07:12:08.806Z,-8.75
2023-02-07T07:14:36.122Z,-8.52
2023-02-07T07:17:02.998Z,-8.43
2023-02-07T07:19:29.725Z,-8.48
2023-02-07T07:21:56.593Z,-8.45
2023-02-07T07:24:25.378Z,-8.31
2023-02-07T07:26:52.197Z,-8.18
2023-02-07T07:29:19.862Z,-8.01
2023-02-07T07:31:47.332Z,-7.93
2023-02-07T07:34:14.708Z,-7.82
2023-02-07T07:36:41.832Z,-7.64
2023-02-07T07:39:09.132Z,-7.47
2023-02-07T07:41:36.342Z,-7.28
2023-02-07T07:44:03.831Z,-7.09
2023-02-07T07:46:30.544Z,-6.96
2023-02-07T07:48:57.352Z,-6.87
2023-02-07T07:51:24.269Z,-6.78
2023-02-07T07:53:51.055Z,-6.69
2023-02-07T07:56:17.780Z,-6.58
2023-02-07T07:58:44.635Z,-6.43
2023-02-07T08:01:11.393Z,-6.25
2023-02-07T08:03:38.270Z,-6.12
2023-02-07T08:06:06.116Z,-5.98
2023-02-07T08:08:33.720Z,-5.73
2023-02-07T08:11:03.661Z,-5.53
2023-02-07T08:13:32.993Z,-5.38
2023-02-07T08:16:01.360Z,-5.27
2023-02-07T08:18:29.261Z,-5.20
2023-02-07T08:20:56.405Z,-5.23
2023-02-07T08:23:23.130Z,-5.20
2023-02-07T08:25:50.254Z,-5.16
2023-02-07T08:28:18.169Z,-5.15
2023-02-07T08:30:47.676Z,-5.12
2023-02-07T08:33:15.960Z,-5.13
2023-02-07T08:35:43.111Z,-5.14
2023-02-07T08:38:09.985Z,-5.12
2023-02-07T08:40:37.601Z,-5.10
2023-02-07T08:43:07.519Z,-5.08
2023-02-07T08:45:34.386Z,-5.05
2023-02-07T08:48:01.259Z,-5.00
2023-02-07T08:50:28.086Z,-4.95
2023-02-07T08:52:55.001Z,-4.95
2023-02-07T08:55:24.133Z,-4.98
2023-02-07T08:57:50.954Z,-5.03
2023-02-07T09:00:18.126Z,-5.06
2023-02-07T09:02:45.052Z,-5.01
2023-02-07T09:05:12.135Z,-4.91
2023-02-07T09:07:39.002Z,-4.83
2023-02-07T09:10:07.774Z,-4.75
2023-02-07T09:12:35.584Z,-4.63
2023-02-07T09:15:03.946Z,-4.48
2023-02-07T09:17:30.777Z,-4.41
2023-02-07T09:19:57.660Z,-4.33
2023-02-07T09:22:24.366Z,-4.30
2023-02-07T09:24:51.114Z,-4.24
2023-02-07T09:27:17.894Z,-4.23
2023-02-07T09:29:44.852Z,-4.30
2023-02-07T09:32:11.548Z,-4.32
2023-02-07T09:34:38.357Z,-4.35
2023-02-07T09:37:05.226Z,-4.33
2023-02-07T09:39:33.127Z,-4.30
2023-02-07T09:42:21.602Z,-4.33
2023-02-07T09:44:56.942Z,-4.33
2023-02-07T09:47:26.041Z,-4.29
2023-02-07T09:50:01.723Z,-4.25
2023-02-07T09:52:35.798Z,-4.30
2023-02-07T09:55:05.608Z,-4.34
2023-02-07T09:57:44.292Z,-4.38
2023-02-07T10:00:29.108Z,-4.43
2023-02-07T10:02:58.664Z,-4.39
2023-02-07T10:05:34.796Z,-4.33
2023-02-07T10:08:02.011Z,-4.25
2023-02-07T10:10:57.066Z,-4.17
2023-02-07T10:13:40.649Z,-4.06
2023-02-07T10:16:23.715Z,-3.95
2023-02-07T10:19:24.702Z,-3.88
2023-02-07T10:21:58.899Z,-3.81
2023-02-07T10:24:25.539Z,-3.79
2023-02-07T10:26:57.892Z,-3.77
2023-02-07T10:29:28.043Z,-3.75
2023-02-07T10:31:59.816Z,-3.74
2023-02-07T10:34:37.661Z,-3.70
2023-02-07T10:37:18.462Z,-3.60
2023-02-07T10:39:52.855Z,-3.52
2023-02-07T10:42:20.585Z,-3.39
2023-02-07T10:44:47.877Z,-3.21
2023-02-07T10:47:18.559Z,-3.04
2023-02-07T10:49:48.631Z,-2.90
2023-02-07T10:52:28.755Z,-2.78
2023-02-07T10:54:58.927Z,-2.69
2023-02-07T10:57:27.915Z,-2.65
2023-02-07T11:00:01.738Z,-2.61
2023-02-07T11:02:28.618Z,-2.53
2023-02-07T11:04:57.231Z,-2.49
2023-02-07T11:07:25.082Z,-2.48
2023-02-07T11:09:52.653Z,-2.46
2023-02-07T11:12:21.563Z,-2.45
2023-02-07T11:15:05.809Z,-2.43
2023-02-07T11:17:35.086Z,-2.41
2023-02-07T11:20:05.708Z,-2.44
2023-02-07T11:22:32.964Z,-2.43
2023-02-07T11:25:05.509Z,-2.43
2023-02-07T11:27:41.892Z,-2.44
2023-02-07T11:30:16.411Z,-2.45
2023-02-07T11:32:44.551Z,-2.41
2023-02-07T11:35:20.883Z,-2.35
2023-02-07T11:37:58.845Z,-2.28
2023-02-07T11:40:36.243Z,-2.20
2023-02-07T11:43:12.298Z,-2.10
2023-02-07T11:45:42.992Z,-1.99
2023-02-07T11:48:24.882Z,-1.93
2023-02-07T11:50:55.624Z,-1.90
2023-02-07T11:53:35.156Z,-1.89
2023-02-07T11:56:02.294Z,-1.86
2023-02-07T11:58:35.390Z,-1.80
2023-02-07T12:01:05.453Z,-1.72
2023-02-07T12:03:41.918Z,-1.64
2023-02-07T12:06:15.708Z,-1.65
2023-02-07T12:08:44.325Z,-1.65
2023-02-07T12:11:17.568Z,-1.69
2023-02-07T12:13:44.421Z,-1.73
2023-02-07T12:16:14.721Z,-1.71
2023-02-07T12:18:48.669Z,-1.70
2023-02-07T12:21:30.876Z,-1.73
2023-02-07T12:24:03.171Z,-1.72
2023-02-07T12:26:37.655Z,-1.68
2023-02-07T12:29:22.022Z,-1.64
2023-02-07T12:32:12.485Z,-1.68
2023-02-07T12:34:59.824Z,-1.69
2023-02-07T12:37:37.648Z,-1.75
2023-02-07T12:40:09.861Z,-1.82
2023-02-07T12:42:49.749Z,-1.87
2023-02-07T12:45:23.276Z,-1.92
2023-02-07T12:47:50.105Z,-1.98
2023-02-07T12:50:35.873Z,-1.94
2023-02-07T12:53:21.786Z,-1.88
2023-02-07T12:56:19.980Z,-1.77
2023-02-07T12:59:09.675Z,-1.70
2023-02-07T13:01:45.580Z,-1.63
2023-02-07T13:04:25.188Z,-1.64
2023-02-07T13:07:16.232Z,-1.65
2023-02-07T13:10:07.287Z,-1.69
2023-02-07T13:12:49.316Z,-1.67
2023-02-07T13:15:21.539Z,-1.55
2023-02-07T13:17:55.708Z,-1.48
2023-02-07T13:20:22.376Z,-1.47
2023-02-07T13:22:56.971Z,-1.37
2023-02-07T13:25:29.511Z,-1.23
2023-02-07T13:27:59.334Z,-1.04
2023-02-07T13:30:29.775Z,-0.85
2023-02-07T13:33:00.929Z,-0.68
2023-02-07T13:35:33.104Z,-0.51
2023-02-07T13:38:31.323Z,-0.32
2023-02-07T13:41:04.854Z,0.31
2023-02-07T13:44:01.638Z,0.88
2023-02-07T13:46:43.507Z,1.19
2023-02-07T13:49:23.418Z,1.36
2023-02-07T13:52:02.077Z,1.45
2023-02-07T13:54:46.658Z,1.51
2023-02-07T13:57:36.806Z,1.52
2023-02-07T14:00:07.611Z,1.56
2023-02-07T14:02:45.100Z,1.61
2023-02-07T14:05:21.286Z,1.74
2023-02-07T14:07:57.935Z,1.83
2023-02-07T14:10:34.591Z,1.83
2023-02-07T14:13:02.622Z,1.77
2023-02-07T14:15:30.745Z,1.68
2023-02-07T14:18:04.121Z,1.70
2023-02-07T14:20:47.855Z,1.83
2023-02-07T14:23:17.030Z,2.04
2023-02-07T14:25:45.758Z,2.36
2023-02-07T14:28:30.502Z,2.76
2023-02-07T14:31:01.517Z,2.77
2023-02-07T14:33:34.021Z,2.58
2023-02-07T14:36:16.935Z,2.21
2023-02-07T14:38:59.974Z,1.86
2023-02-07T14:41:30.557Z,1.47
2023-02-07T14:44:09.172Z,1.12
2023-02-07T14:46:40.904Z,0.82
2023-02-07T14:49:13.861Z,0.63
2023-02-07T14:51:47.278Z,0.36
2023-02-07T14:54:22.168Z,0.05
2023-02-07T14:57:15.574Z,-0.19
2023-02-07T14:59:47.263Z,-0.42
2023-02-07T15:02:31.106Z,-0.51
2023-02-07T15:04:58.783Z,-0.51
2023-02-07T15:07:25.555Z,-0.51
2023-02-07T15:09:52.451Z,-0.53
2023-02-07T15:12:27.366Z,-0.61
2023-02-07T15:14:57.245Z,-0.65
2023-02-07T15:17:33.472Z,-0.67
2023-02-07T15:20:06.819Z,-0.73
2023-02-07T15:22:33.560Z,-0.76
2023-02-07T15:25:01.181Z,-0.75
2023-02-07T15:27:30.061Z,-0.81
2023-02-07T15:30:01.187Z,-0.88
2023-02-07T15:32:31.604Z,-0.98
2023-02-07T15:35:07.306Z,-1.04
2023-02-07T15:37:34.136Z,-1.09
2023-02-07T15:40:01.078Z,-1.15
2023-02-07T15:42:28.723Z,-1.26
2023-02-07T15:44:58.445Z,-1.31
2023-02-07T15:47:28.539Z,-1.30
2023-02-07T15:50:00.836Z,-1.27
2023-02-07T15:52:27.574Z,-1.29
2023-02-07T15:54:55.782Z,-1.31
2023-02-07T15:57:28.495Z,-1.28
2023-02-07T15:59:56.599Z,-1.25
2023-02-07T16:02:29.917Z,-1.28
2023-02-07T16:04:57.750Z,-1.34
2023-02-07T16:07:25.139Z,-1.44
2023-02-07T16:09:54.070Z,-1.53
2023-02-07T16:12:32.092Z,-1.57
2023-02-07T16:15:00.794Z,-1.59
2023-02-07T16:17:44.544Z,-1.61
2023-02-07T16:20:14.803Z,-1.62
2023-02-07T16:22:43.781Z,-1.60
2023-02-07T16:25:21.729Z,-1.55
2023-02-07T16:27:51.386Z,-1.49
2023-02-07T16:30:23.728Z,-1.40
2023-02-07T16:32:50.519Z,-1.31
2023-02-07T16:35:24.132Z,-1.24
2023-02-07T16:37:51.513Z,-1.18
2023-02-07T16:40:22.398Z,-1.15
2023-02-07T16:42:50.140Z,-1.13
2023-02-07T16:45:27.154Z,-1.12
2023-02-07T16:47:55.386Z,-1.13
2023-02-07T16:50:25.386Z,-1.13
2023-02-07T16:52:54.751Z,-1.14
2023-02-07T16:55:21.585Z,-1.18
2023-02-07T16:57:50.318Z,-1.22
2023-02-07T17:00:21.275Z,-1.23
2023-02-07T17:02:50.664Z,-1.23
2023-02-07T17:05:19.035Z,-1.19
2023-02-07T17:07:47.459Z,-1.15
2023-02-07T17:10:18.435Z,-1.10
2023-02-07T17:12:45.601Z,-1.08
2023-02-07T17:15:12.608Z,-1.07
2023-02-07T17:17:39.708Z,-1.07
2023-02-07T17:20:23.072Z,-1.07
2023-02-07T17:22:51.743Z,-1.10
2023-02-07T17:25:20.152Z,-1.12
2023-02-07T17:27:47.393Z,-1.14
2023-02-07T17:30:19.763Z,-1.16
2023-02-07T17:32:47.018Z,-1.18
2023-02-07T17:35:14.406Z,-1.20
2023-02-07T17:37:41.601Z,-1.24
2023-02-07T17:40:20.520Z,-1.27
2023-02-07T17:42:47.407Z,-1.28
2023-02-07T17:45:14.967Z,-1.26
2023-02-07T17:47:42.164Z,-1.24
2023-02-07T17:50:16.982Z,-1.19
2023-02-07T17:52:44.004Z,-1.15
2023-02-07T17:55:10.992Z,-1.12
2023-02-07T17:57:38.222Z,-1.10
2023-02-07T18:00:06.039Z,-1.10
2023-02-07T18:02:39.672Z,-1.13
2023-02-07T18:05:07.039Z,-1.15
2023-02-07T18:07:33.982Z,-1.19
2023-02-07T18:10:00.769Z,-1.21
2023-02-07T18:12:27.675Z,-1.28
2023-02-07T18:14:56.556Z,-1.33
2023-02-07T18:17:25.566Z,-1.39
2023-02-07T18:19:52.404Z,-1.44
2023-02-07T18:22:19.243Z,-1.42
2023-02-07T18:24:46.358Z,-1.39
2023-02-07T18:27:17.463Z,-1.35
2023-02-07T18:29:46.115Z,-1.32
2023-02-07T18:32:13.376Z,-1.29
2023-02-07T18:34:41.097Z,-1.27
2023-02-07T18:37:08.114Z,-1.25
2023-02-07T18:39:34.961Z,-1.25
2023-02-07T18:42:02.138Z,-1.25
2023-02-07T18:44:28.949Z,-1.25
2023-02-07T18:46:55.942Z,-1.26
2023-02-07T18:49:23.575Z,-1.28
2023-02-07T18:51:50.398Z,-1.31
2023-02-07T18:54:17.445Z,-1.33
2023-02-07T18:56:51.868Z,-1.34
2023-02-07T18:59:20.387Z,-1.34
2023-02-07T19:01:48.575Z,-1.30
2023-02-07T19:04:16.238Z,-1.26
2023-02-07T19:06:44.854Z,-1.25
2023-02-07T19:09:12.546Z,-1.23
2023-02-07T19:11:40.873Z,-1.23
2023-02-07T19:14:18.420Z,-1.24
2023-02-07T19:16:46.374Z,-1.26
2023-02-07T19:19:14.403Z,-1.29
2023-02-07T19:21:41.359Z,-1.33
2023-02-07T19:24:11.400Z,-1.35
2023-02-07T19:26:39.618Z,-1.39
2023-02-07T19:29:06.422Z,-1.42
2023-02-07T19:31:33.623Z,-1.41
2023-02-07T19:34:00.432Z,-1.40
2023-02-07T19:36:28.985Z,-1.35
2023-02-07T19:38:56.081Z,-1.32
2023-02-07T19:41:24.820Z,-1.32
2023-02-07T19:43:51.950Z,-1.30
2023-02-07T19:46:19.089Z,-1.33
2023-02-07T19:48:47.332Z,-1.34
2023-02-07T19:51:18.015Z,-1.35
2023-02-07T19:53:46.652Z,-1.37
2023-02-07T19:56:14.242Z,-1.41
2023-02-07T19:58:44.255Z,-1.45
2023-02-07T20:01:26.879Z,-1.47
2023-02-07T20:03:55.555Z,-1.48
2023-02-07T20:06:28.768Z,-1.46
2023-02-07T20:08:57.364Z,-1.42
2023-02-07T20:11:24.478Z,-1.38
2023-02-07T20:13:54.498Z,-1.33
2023-02-07T20:16:24.471Z,-1.31
2023-02-07T20:18:52.788Z,-1.31
2023-02-07T20:21:24.641Z,-1.31
2023-02-07T20:23:54.275Z,-1.31
2023-02-07T20:26:25.042Z,-1.32
2023-02-07T20:28:52.260Z,-1.35
2023-02-07T20:31:22.693Z,-1.40
2023-02-07T20:33:50.399Z,-1.46
2023-02-07T20:36:18.773Z,-1.49
2023-02-07T20:38:46.626Z,-1.51
2023-02-07T20:41:29.294Z,-1.52
2023-02-07T20:43:59.287Z,-1.53
2023-02-07T20:46:28.163Z,-1.49
2023-02-07T20:48:58.346Z,-1.44
2023-02-07T20:51:26.457Z,-1.39
2023-02-07T20:53:56.847Z,-1.35
2023-02-07T20:56:24.306Z,-1.33
2023-02-07T20:58:51.571Z,-1.34
2023-02-07T21:01:21.221Z,-1.32
2023-02-07T21:03:50.701Z,-1.33
2023-02-07T21:06:17.989Z,-1.35
2023-02-07T21:08:45.423Z,-1.38
2023-02-07T21:11:12.298Z,-1.41
2023-02-07T21:13:39.832Z,-1.45
2023-02-07T21:16:07.819Z,-1.47
2023-02-07T21:18:35.443Z,-1.49
2023-02-07T21:21:07.516Z,-1.48
2023-02-07T21:23:35.609Z,-1.45
2023-02-07T21:26:06.436Z,-1.40
2023-02-07T21:28:33.822Z,-1.36
2023-02-07T21:31:05.569Z,-1.34
2023-02-07T21:33:32.414Z,-1.35
2023-02-07T21:36:08.582Z,-1.36
2023-02-07T21:38:36.570Z,-1.38
2023-02-07T21:41:05.722Z,-1.38
2023-02-07T21:43:32.647Z,-1.39
2023-02-07T21:46:05.659Z,-1.43
2023-02-07T21:48:35.756Z,-1.46
2023-02-07T21:51:07.544Z,-1.50
2023-02-07T21:53:34.681Z,-1.52
2023-02-07T21:56:04.948Z,-1.51
2023-02-07T21:58:32.139Z,-1.50
2023-02-07T22:01:08.961Z,-1.46
2023-02-07T22:03:37.435Z,-1.44
2023-02-07T22:06:05.993Z,-1.42
2023-02-07T22:08:34.012Z,-1.44
2023-02-07T22:11:11.118Z,-1.43
2023-02-07T22:13:40.910Z,-1.42
2023-02-07T22:16:10.726Z,-1.42
2023-02-07T22:18:38.194Z,-1.44
2023-02-07T22:21:07.794Z,-1.44
2023-02-07T22:23:34.612Z,-1.47
2023-02-07T22:26:01.360Z,-1.48
2023-02-07T22:28:28.670Z,-1.49
2023-02-07T22:30:55.688Z,-1.47
2023-02-07T22:33:22.472Z,-1.44
2023-02-07T22:35:49.330Z,-1.40
2023-02-07T22:38:16.343Z,-1.35
2023-02-07T22:40:43.983Z,-1.32
2023-02-07T22:43:14.798Z,-1.30
2023-02-07T22:45:46.217Z,-1.31
2023-02-07T22:48:15.441Z,-1.32
2023-02-07T22:50:43.444Z,-1.36
2023-02-07T22:53:12.163Z,-1.38
2023-02-07T22:55:41.041Z,-1.42
2023-02-07T22:58:08.593Z,-1.44
2023-02-07T23:00:35.720Z,-1.48
2023-02-07T23:03:02.511Z,-1.48
2023-02-07T23:05:29.276Z,-1.47
2023-02-07T23:07:56.223Z,-1.43
2023-02-07T23:10:24.543Z,-1.38
2023-02-07T23:12:51.434Z,-1.35
2023-02-07T23:15:18.577Z,-1.35
2023-02-07T23:17:45.365Z,-1.36
2023-02-07T23:20:12.124Z,-1.38
2023-02-07T23:22:39.107Z,-1.41
2023-02-07T23:25:07.009Z,-1.46
2023-02-07T23:27:33.919Z,-1.50
2023-02-07T23:30:00.859Z,-1.53
2023-02-07T23:32:27.772Z,-1.57
2023-02-07T23:34:54.495Z,-1.58
2023-02-07T23:37:22.504Z,-1.57
2023-02-07T23:39:49.433Z,-1.56
2023-02-07T23:42:16.249Z,-1.55
2023-02-07T23:44:43.119Z,-1.51
2023-02-07T23:47:09.966Z,-1.50
2023-02-07T23:49:36.746Z,-1.50
2023-02-07T23:52:03.588Z,-1.51
2023-02-07T23:54:30.400Z,-1.52
2023-02-07T23:56:57.120Z,-1.54
2023-02-07T23:59:23.803Z,-1.55
